Station Historical Data
Daily Summary for May 14, 2017 Units:  Both    English   Metric
« Previous Day
Next Day »
Daily Weekly Monthly Yearly Custom
  High: Low: Average:
Temperature: 64.5 °F /  18.1 °C 48.6 °F /  9.2 °C 53.5 °F /  11.9 °C
Dew Point: 52.3 °F /  11.3 °C 36.9 °F /  2.7 °C 44.8 °F /  7.1 °C
Humidity: 89% 39% 73%
Wind Speed: 18.0mph /  29km/h - 4.2mph /  6.8km/h
Wind Gust: 25.0mph /  40.2km/h - -
Wind- - West
Pressure: 29.90 in /  1012.4 hPa 29.68 in /  1005 hPa -
Precipitation: 0.00 in /  0 mm    
Historical Graphs
 
 
Tabular Data for May 14, 2017
Time Temperature Dew Point Pressure Wind Wind Speed Wind Gust Humidity Rainfall Rate (Hourly)
00:04 50.2 °F /  10.1 °C 43.6 °F /  6.4 °C 29.77in /  1008hPa SSW 1.0mph /  1.6km/h 1.0mph /  1.6km/h 78% 0.00in /  0mm
00:09 49.9 °F /  9.9 °C 43.3 °F /  6.3 °C 29.77in /  1008hPa Calm   3.0mph /  4.8km/h 78% 0.00in /  0mm
00:14 49.8 °F /  9.9 °C 43.5 °F /  6.4 °C 29.77in /  1008hPa Calm   4.0mph /  6.4km/h 79% 0.00in /  0mm
00:19 49.6 °F /  9.8 °C 43.4 °F /  6.3 °C 29.77in /  1008hPa SW 1.0mph /  1.6km/h 4.0mph /  6.4km/h 79% 0.00in /  0mm
00:24 49.5 °F /  9.7 °C 43.3 °F /  6.3 °C 29.77in /  1008hPa SW 1.0mph /  1.6km/h 5.0mph /  8km/h 79% 0.00in /  0mm
00:29 49.6 °F /  9.8 °C 43.7 °F /  6.5 °C 29.77in /  1008hPa SW 1.0mph /  1.6km/h 6.0mph /  9.7km/h 80% 0.00in /  0mm
00:34 49.6 °F /  9.8 °C 43.7 °F /  6.5 °C 29.77in /  1008hPa Calm   5.0mph /  8km/h 80% 0.00in /  0mm
00:39 49.6 °F /  9.8 °C 43.7 °F /  6.5 °C 29.77in /  1008hPa SW 1.0mph /  1.6km/h 3.0mph /  4.8km/h 80% 0.00in /  0mm
00:44 49.7 °F /  9.8 °C 43.8 °F /  6.6 °C 29.76in /  1007.7hPa South 1.0mph /  1.6km/h 4.0mph /  6.4km/h 80% 0.00in /  0mm
00:49 49.7 °F /  9.8 °C 43.8 °F /  6.6 °C 29.77in /  1008hPa SSW 1.0mph /  1.6km/h 4.0mph /  6.4km/h 80% 0.00in /  0mm
00:54 49.7 °F /  9.8 °C 43.8 °F /  6.6 °C 29.77in /  1008hPa SSW 1.0mph /  1.6km/h 4.0mph /  6.4km/h 80% 0.00in /  0mm
00:59 49.7 °F /  9.8 °C 43.8 °F /  6.6 °C 29.77in /  1008hPa SSW 1.0mph /  1.6km/h 3.0mph /  4.8km/h 80% 0.00in /  0mm
01:04 49.6 °F /  9.8 °C 43.7 °F /  6.5 °C 29.77in /  1008hPa SW 1.0mph /  1.6km/h 5.0mph /  8km/h 80% 0.00in /  0mm
01:09 49.6 °F /  9.8 °C 43.7 °F /  6.5 °C 29.77in /  1008hPa Calm   3.0mph /  4.8km/h 80% 0.00in /  0mm
01:14 49.6 °F /  9.8 °C 44.0 °F /  6.7 °C 29.76in /  1007.7hPa SSW 1.0mph /  1.6km/h 4.0mph /  6.4km/h 81% 0.00in /  0mm
01:19 49.6 °F /  9.8 °C 44.0 °F /  6.7 °C 29.76in /  1007.7hPa SSW 1.0mph /  1.6km/h 4.0mph /  6.4km/h 81% 0.00in /  0mm
01:24 49.4 °F /  9.7 °C 43.8 °F /  6.6 °C 29.76in /  1007.7hPa Calm   3.0mph /  4.8km/h 81% 0.00in /  0mm
01:29 49.4 °F /  9.7 °C 43.8 °F /  6.6 °C 29.76in /  1007.7hPa SW 2.0mph /  3.2km/h 2.0mph /  3.2km/h 81% 0.00in /  0mm
01:34 49.2 °F /  9.6 °C 43.6 °F /  6.4 °C 29.76in /  1007.7hPa Calm   2.0mph /  3.2km/h 81% 0.00in /  0mm
01:39 49.2 °F /  9.6 °C 43.6 °F /  6.4 °C 29.76in /  1007.7hPa Calm     81% 0.00in /  0mm
01:44 49.1 °F /  9.5 °C 43.5 °F /  6.4 °C 29.76in /  1007.7hPa SW 1.0mph /  1.6km/h 2.0mph /  3.2km/h 81% 0.00in /  0mm
01:49 49.0 °F /  9.4 °C 43.4 °F /  6.3 °C 29.75in /  1007.3hPa SW 1.0mph /  1.6km/h 2.0mph /  3.2km/h 81% 0.00in /  0mm
01:54 48.9 °F /  9.4 °C 43.3 °F /  6.3 °C 29.75in /  1007.3hPa Calm   2.0mph /  3.2km/h 81% 0.00in /  0mm
01:59 48.8 °F /  9.3 °C 43.5 °F /  6.4 °C 29.75in /  1007.3hPa Calm   2.0mph /  3.2km/h 82% 0.00in /  0mm
02:04 48.9 °F /  9.4 °C 43.6 °F /  6.4 °C 29.75in /  1007.3hPa SW 1.0mph /  1.6km/h 2.0mph /  3.2km/h 82% 0.00in /  0mm
02:09 48.9 °F /  9.4 °C 44.0 °F /  6.7 °C 29.75in /  1007.3hPa Calm   1.0mph /  1.6km/h 83% 0.00in /  0mm
02:14 48.9 °F /  9.4 °C 44.0 °F /  6.7 °C 29.74in /  1007hPa Calm   2.0mph /  3.2km/h 83% 0.00in /  0mm
02:19 48.9 °F /  9.4 °C 44.0 °F /  6.7 °C 29.75in /  1007.3hPa Calm   2.0mph /  3.2km/h 83% 0.00in /  0mm
02:24 48.9 °F /  9.4 °C 44.0 °F /  6.7 °C 29.75in /  1007.3hPa SW 1.0mph /  1.6km/h 3.0mph /  4.8km/h 83% 0.00in /  0mm
02:29 49.1 °F /  9.5 °C 44.5 °F /  6.9 °C 29.75in /  1007.3hPa SW 1.0mph /  1.6km/h 4.0mph /  6.4km/h 84% 0.00in /  0mm
02:34 49.2 °F /  9.6 °C 44.6 °F /  7 °C 29.75in /  1007.3hPa SW 3.0mph /  4.8km/h 5.0mph /  8km/h 84% 0.00in /  0mm
02:39 49.3 °F /  9.6 °C 44.7 °F /  7.1 °C 29.75in /  1007.3hPa WSW 2.0mph /  3.2km/h 5.0mph /  8km/h 84% 0.00in /  0mm
02:44 49.4 °F /  9.7 °C 44.5 °F /  6.9 °C 29.75in /  1007.3hPa SW 3.0mph /  4.8km/h 6.0mph /  9.7km/h 83% 0.00in /  0mm
02:49 49.6 °F /  9.8 °C 44.6 °F /  7 °C 29.74in /  1007hPa Calm   7.0mph /  11.3km/h 83% 0.00in /  0mm
02:54 49.7 °F /  9.8 °C 44.7 °F /  7.1 °C 29.75in /  1007.3hPa WSW 2.0mph /  3.2km/h 5.0mph /  8km/h 83% 0.00in /  0mm
02:59 49.9 °F /  9.9 °C 44.6 °F /  7 °C 29.75in /  1007.3hPa SW 6.0mph /  9.7km/h 6.0mph /  9.7km/h 82% 0.00in /  0mm
03:04 49.9 °F /  9.9 °C 44.6 °F /  7 °C 29.74in /  1007hPa WSW 5.0mph /  8km/h 8.0mph /  12.9km/h 82% 0.00in /  0mm
03:09 50.1 °F /  10.1 °C 44.8 °F /  7.1 °C 29.74in /  1007hPa WSW 3.0mph /  4.8km/h 8.0mph /  12.9km/h 82% 0.00in /  0mm
03:14 50.1 °F /  10.1 °C 44.8 °F /  7.1 °C 29.74in /  1007hPa SW 3.0mph /  4.8km/h 7.0mph /  11.3km/h 82% 0.00in /  0mm
03:19 50.0 °F /  10 °C 44.7 °F /  7.1 °C 29.74in /  1007hPa WSW 2.0mph /  3.2km/h 4.0mph /  6.4km/h 82% 0.00in /  0mm
03:24 49.9 °F /  9.9 °C 44.6 °F /  7 °C 29.74in /  1007hPa WSW 2.0mph /  3.2km/h 4.0mph /  6.4km/h 82% 0.00in /  0mm
03:29 49.8 °F /  9.9 °C 44.5 °F /  6.9 °C 29.74in /  1007hPa WSW 2.0mph /  3.2km/h 4.0mph /  6.4km/h 82% 0.00in /  0mm
03:34 49.7 °F /  9.8 °C 44.1 °F /  6.7 °C 29.74in /  1007hPa WSW 2.0mph /  3.2km/h 4.0mph /  6.4km/h 81% 0.00in /  0mm
03:39 49.5 °F /  9.7 °C 44.2 °F /  6.8 °C 29.74in /  1007hPa WSW 3.0mph /  4.8km/h 6.0mph /  9.7km/h 82% 0.00in /  0mm
03:44 49.5 °F /  9.7 °C 44.2 °F /  6.8 °C 29.74in /  1007hPa WSW 1.0mph /  1.6km/h 7.0mph /  11.3km/h 82% 0.00in /  0mm
03:49 49.4 °F /  9.7 °C 44.1 °F /  6.7 °C 29.74in /  1007hPa SW 3.0mph /  4.8km/h 4.0mph /  6.4km/h 82% 0.00in /  0mm
03:54 49.3 °F /  9.6 °C 44.4 °F /  6.9 °C 29.74in /  1007hPa SW 1.0mph /  1.6km/h 7.0mph /  11.3km/h 83% 0.00in /  0mm
03:59 49.2 °F /  9.6 °C 44.3 °F /  6.8 °C 29.74in /  1007hPa WSW 3.0mph /  4.8km/h 6.0mph /  9.7km/h 83% 0.00in /  0mm
04:04 49.1 °F /  9.5 °C 44.2 °F /  6.8 °C 29.74in /  1007hPa SW 1.0mph /  1.6km/h 5.0mph /  8km/h 83% 0.00in /  0mm
04:09 49.1 °F /  9.5 °C 44.5 °F /  6.9 °C 29.73in /  1006.7hPa SW 1.0mph /  1.6km/h 4.0mph /  6.4km/h 84% 0.00in /  0mm
04:14 49.0 °F /  9.4 °C 44.4 °F /  6.9 °C 29.73in /  1006.7hPa SW 2.0mph /  3.2km/h 4.0mph /  6.4km/h 84% 0.00in /  0mm
04:19 49.1 °F /  9.5 °C 44.5 °F /  6.9 °C 29.74in /  1007hPa SW 2.0mph /  3.2km/h 6.0mph /  9.7km/h 84% 0.00in /  0mm
04:24 49.0 °F /  9.4 °C 44.4 °F /  6.9 °C 29.74in /  1007hPa SW 3.0mph /  4.8km/h 6.0mph /  9.7km/h 84% 0.00in /  0mm
04:29 49.0 °F /  9.4 °C 44.4 °F /  6.9 °C 29.73in /  1006.7hPa SW 2.0mph /  3.2km/h 6.0mph /  9.7km/h 84% 0.00in /  0mm
04:34 49.1 °F /  9.5 °C 44.8 °F /  7.1 °C 29.73in /  1006.7hPa SW 2.0mph /  3.2km/h 5.0mph /  8km/h 85% 0.00in /  0mm
04:39 49.0 °F /  9.4 °C 44.7 °F /  7.1 °C 29.73in /  1006.7hPa SW 1.0mph /  1.6km/h 3.0mph /  4.8km/h 85% 0.00in /  0mm
04:44 49.0 °F /  9.4 °C 44.7 °F /  7.1 °C 29.73in /  1006.7hPa SW 2.0mph /  3.2km/h 6.0mph /  9.7km/h 85% 0.00in /  0mm
04:49 48.9 °F /  9.4 °C 44.6 °F /  7 °C 29.73in /  1006.7hPa SW 4.0mph /  6.4km/h 6.0mph /  9.7km/h 85% 0.00in /  0mm
04:54 48.9 °F /  9.4 °C 44.6 °F /  7 °C 29.73in /  1006.7hPa SSW 2.0mph /  3.2km/h 5.0mph /  8km/h 85% 0.00in /  0mm
04:59 48.9 °F /  9.4 °C 44.6 °F /  7 °C 29.73in /  1006.7hPa SW 1.0mph /  1.6km/h 6.0mph /  9.7km/h 85% 0.00in /  0mm
05:04 48.8 °F /  9.3 °C 44.5 °F /  6.9 °C 29.73in /  1006.7hPa Calm   3.0mph /  4.8km/h 85% 0.00in /  0mm
05:09 48.8 °F /  9.3 °C 44.5 °F /  6.9 °C 29.73in /  1006.7hPa SW 2.0mph /  3.2km/h 6.0mph /  9.7km/h 85% 0.00in /  0mm
05:14 48.8 °F /  9.3 °C 44.8 °F /  7.1 °C 29.73in /  1006.7hPa SW 2.0mph /  3.2km/h 6.0mph /  9.7km/h 86% 0.00in /  0mm
05:19 48.8 °F /  9.3 °C 44.8 °F /  7.1 °C 29.73in /  1006.7hPa SW 2.0mph /  3.2km/h 5.0mph /  8km/h 86% 0.00in /  0mm
05:24 48.8 °F /  9.3 °C 44.8 °F /  7.1 °C 29.73in /  1006.7hPa SW 4.0mph /  6.4km/h 5.0mph /  8km/h 86% 0.00in /  0mm
05:29 48.8 °F /  9.3 °C 44.8 °F /  7.1 °C 29.74in /  1007hPa SW 4.0mph /  6.4km/h 5.0mph /  8km/h 86% 0.00in /  0mm
05:34 48.9 °F /  9.4 °C 45.2 °F /  7.3 °C 29.74in /  1007hPa SW 1.0mph /  1.6km/h 5.0mph /  8km/h 87% 0.00in /  0mm
05:39 48.9 °F /  9.4 °C 45.2 °F /  7.3 °C 29.74in /  1007hPa SW 3.0mph /  4.8km/h 6.0mph /  9.7km/h 87% 0.00in /  0mm
05:44 48.9 °F /  9.4 °C 45.2 °F /  7.3 °C 29.74in /  1007hPa SW 3.0mph /  4.8km/h 6.0mph /  9.7km/h 87% 0.00in /  0mm
05:49 48.9 °F /  9.4 °C 45.2 °F /  7.3 °C 29.74in /  1007hPa SW 2.0mph /  3.2km/h 6.0mph /  9.7km/h 87% 0.00in /  0mm
05:54 48.8 °F /  9.3 °C 45.1 °F /  7.3 °C 29.74in /  1007hPa SW 2.0mph /  3.2km/h 4.0mph /  6.4km/h 87% 0.00in /  0mm
05:59 48.8 °F /  9.3 °C 45.1 °F /  7.3 °C 29.73in /  1006.7hPa SW 2.0mph /  3.2km/h 4.0mph /  6.4km/h 87% 0.00in /  0mm
06:04 48.8 °F /  9.3 °C 45.1 °F /  7.3 °C 29.73in /  1006.7hPa Calm   3.0mph /  4.8km/h 87% 0.00in /  0mm
06:09 48.6 °F /  9.2 °C 44.9 °F /  7.2 °C 29.74in /  1007hPa Calm     87% 0.00in /  0mm
06:14 48.6 °F /  9.2 °C 44.9 °F /  7.2 °C 29.73in /  1006.7hPa Calm   4.0mph /  6.4km/h 87% 0.00in /  0mm
06:19 48.6 °F /  9.2 °C 44.9 °F /  7.2 °C 29.74in /  1007hPa WSW 1.0mph /  1.6km/h 5.0mph /  8km/h 87% 0.00in /  0mm
06:24 48.7 °F /  9.3 °C 45.3 °F /  7.4 °C 29.74in /  1007hPa WSW 3.0mph /  4.8km/h 5.0mph /  8km/h 88% 0.00in /  0mm
06:29 48.8 °F /  9.3 °C 45.4 °F /  7.4 °C 29.74in /  1007hPa SW 2.0mph /  3.2km/h 6.0mph /  9.7km/h 88% 0.00in /  0mm
06:34 48.9 °F /  9.4 °C 45.5 °F /  7.5 °C 29.74in /  1007hPa SW 2.0mph /  3.2km/h 5.0mph /  8km/h 88% 0.00in /  0mm
06:39 49.1 °F /  9.5 °C 45.7 °F /  7.6 °C 29.74in /  1007hPa WSW 2.0mph /  3.2km/h 5.0mph /  8km/h 88% 0.00in /  0mm
06:44 49.1 °F /  9.5 °C 45.7 °F /  7.6 °C 29.75in /  1007.3hPa WSW 2.0mph /  3.2km/h 5.0mph /  8km/h 88% 0.00in /  0mm
06:49 49.2 °F /  9.6 °C 45.8 °F /  7.7 °C 29.74in /  1007hPa WSW 2.0mph /  3.2km/h 5.0mph /  8km/h 88% 0.00in /  0mm
06:54 49.2 °F /  9.6 °C 45.8 °F /  7.7 °C 29.74in /  1007hPa WSW 2.0mph /  3.2km/h 4.0mph /  6.4km/h 88% 0.00in /  0mm
06:59 49.4 °F /  9.7 °C 46.0 °F /  7.8 °C 29.74in /  1007hPa SW 2.0mph /  3.2km/h 4.0mph /  6.4km/h 88% 0.00in /  0mm
07:04 49.4 °F /  9.7 °C 46.3 °F /  7.9 °C 29.75in /  1007.3hPa WSW 1.0mph /  1.6km/h 4.0mph /  6.4km/h 89% 0.00in /  0mm
07:09 49.6 °F /  9.8 °C 46.5 °F /  8.1 °C 29.75in /  1007.3hPa WSW 3.0mph /  4.8km/h 4.0mph /  6.4km/h 89% 0.00in /  0mm
07:14 49.6 °F /  9.8 °C 46.5 °F /  8.1 °C 29.75in /  1007.3hPa WSW 2.0mph /  3.2km/h 5.0mph /  8km/h 89% 0.00in /  0mm
07:19 49.7 °F /  9.8 °C 46.6 °F /  8.1 °C 29.75in /  1007.3hPa WSW 2.0mph /  3.2km/h 3.0mph /  4.8km/h 89% 0.00in /  0mm
07:24 49.8 °F /  9.9 °C 46.7 °F /  8.2 °C 29.75in /  1007.3hPa Calm   3.0mph /  4.8km/h 89% 0.00in /  0mm
07:29 49.9 °F /  9.9 °C 46.8 °F /  8.2 °C 29.75in /  1007.3hPa Calm   3.0mph /  4.8km/h 89% 0.00in /  0mm
07:34 50.0 °F /  10 °C 46.9 °F /  8.3 °C 29.75in /  1007.3hPa Calm   3.0mph /  4.8km/h 89% 0.00in /  0mm
07:39 50.2 °F /  10.1 °C 47.1 °F /  8.4 °C 29.75in /  1007.3hPa Calm   2.0mph /  3.2km/h 89% 0.00in /  0mm
07:44 50.4 °F /  10.2 °C 47.3 °F /  8.5 °C 29.75in /  1007.3hPa WSW 1.0mph /  1.6km/h 3.0mph /  4.8km/h 89% 0.00in /  0mm
07:49 50.4 °F /  10.2 °C 47.3 °F /  8.5 °C 29.75in /  1007.3hPa WSW 1.0mph /  1.6km/h 3.0mph /  4.8km/h 89% 0.00in /  0mm
07:54 50.6 °F /  10.3 °C 47.5 °F /  8.6 °C 29.75in /  1007.3hPa Calm   3.0mph /  4.8km/h 89% 0.00in /  0mm
07:59 50.7 °F /  10.4 °C 47.6 °F /  8.7 °C 29.75in /  1007.3hPa Calm   4.0mph /  6.4km/h 89% 0.00in /  0mm
08:04 51.1 °F /  10.6 °C 47.7 °F /  8.7 °C 29.75in /  1007.3hPa WSW 2.0mph /  3.2km/h 5.0mph /  8km/h 88% 0.00in /  0mm
08:09 51.5 °F /  10.8 °C 47.8 °F /  8.8 °C 29.75in /  1007.3hPa WSW 2.0mph /  3.2km/h 5.0mph /  8km/h 87% 0.00in /  0mm
08:14 51.7 °F /  10.9 °C 48.0 °F /  8.9 °C 29.75in /  1007.3hPa WSW 3.0mph /  4.8km/h 7.0mph /  11.3km/h 87% 0.00in /  0mm
08:19 51.7 °F /  10.9 °C 47.6 °F /  8.7 °C 29.75in /  1007.3hPa WSW 4.0mph /  6.4km/h 6.0mph /  9.7km/h 86% 0.00in /  0mm
08:24 51.9 °F /  11.1 °C 47.8 °F /  8.8 °C 29.75in /  1007.3hPa WSW 4.0mph /  6.4km/h 5.0mph /  8km/h 86% 0.00in /  0mm
08:29 52.0 °F /  11.1 °C 47.9 °F /  8.8 °C 29.75in /  1007.3hPa WSW 2.0mph /  3.2km/h 5.0mph /  8km/h 86% 0.00in /  0mm
08:34 52.3 °F /  11.3 °C 48.2 °F /  9 °C 29.75in /  1007.3hPa SW 2.0mph /  3.2km/h 4.0mph /  6.4km/h 86% 0.00in /  0mm
08:39 52.5 °F /  11.4 °C 48.1 °F /  8.9 °C 29.75in /  1007.3hPa SW 2.0mph /  3.2km/h 5.0mph /  8km/h 85% 0.00in /  0mm
08:44 52.7 °F /  11.5 °C 48.3 °F /  9.1 °C 29.75in /  1007.3hPa SW 2.0mph /  3.2km/h 5.0mph /  8km/h 85% 0.00in /  0mm
08:49 52.9 °F /  11.6 °C 48.5 °F /  9.2 °C 29.75in /  1007.3hPa WSW 2.0mph /  3.2km/h 4.0mph /  6.4km/h 85% 0.00in /  0mm
08:54 53.5 °F /  11.9 °C 48.8 °F /  9.3 °C 29.75in /  1007.3hPa SSW 3.0mph /  4.8km/h 6.0mph /  9.7km/h 84% 0.00in /  0mm
08:59 53.7 °F /  12.1 °C 49.0 °F /  9.4 °C 29.75in /  1007.3hPa SW 3.0mph /  4.8km/h 5.0mph /  8km/h 84% 0.00in /  0mm
09:04 53.4 °F /  11.9 °C 48.0 °F /  8.9 °C 29.75in /  1007.3hPa SW 3.0mph /  4.8km/h 5.0mph /  8km/h 82% 0.00in /  0mm
09:09 53.5 °F /  11.9 °C 48.1 °F /  8.9 °C 29.75in /  1007.3hPa SW 3.0mph /  4.8km/h 5.0mph /  8km/h 82% 0.00in /  0mm
09:14 54.2 °F /  12.3 °C 48.5 °F /  9.2 °C 29.74in /  1007hPa SW 3.0mph /  4.8km/h 7.0mph /  11.3km/h 81% 0.00in /  0mm
09:19 54.1 °F /  12.3 °C 48.4 °F /  9.1 °C 29.74in /  1007hPa SSW 4.0mph /  6.4km/h 5.0mph /  8km/h 81% 0.00in /  0mm
09:24 54.1 °F /  12.3 °C 49.1 °F /  9.5 °C 29.74in /  1007hPa Calm   6.0mph /  9.7km/h 83% 0.00in /  0mm
09:29 55.5 °F /  13.1 °C 49.8 °F /  9.9 °C 29.75in /  1007.3hPa WSW 3.0mph /  4.8km/h 7.0mph /  11.3km/h 81% 0.00in /  0mm
09:34 55.4 °F /  13 °C 49.7 °F /  9.8 °C 29.75in /  1007.3hPa SW 4.0mph /  6.4km/h 10.0mph /  16.1km/h 81% 0.00in /  0mm
09:39 55.8 °F /  13.2 °C 49.7 °F /  9.8 °C 29.75in /  1007.3hPa SW 3.0mph /  4.8km/h 7.0mph /  11.3km/h 80% 0.00in /  0mm
09:44 56.0 °F /  13.3 °C 49.6 °F /  9.8 °C 29.75in /  1007.3hPa WSW 4.0mph /  6.4km/h 8.0mph /  12.9km/h 79% 0.00in /  0mm
09:49 56.7 °F /  13.7 °C 49.6 °F /  9.8 °C 29.74in /  1007hPa WSW 4.0mph /  6.4km/h 6.0mph /  9.7km/h 77% 0.00in /  0mm
09:54 57.1 °F /  13.9 °C 49.6 °F /  9.8 °C 29.74in /  1007hPa WSW 4.0mph /  6.4km/h 8.0mph /  12.9km/h 76% 0.00in /  0mm
09:59 56.8 °F /  13.8 °C 49.3 °F /  9.6 °C 29.74in /  1007hPa WSW 4.0mph /  6.4km/h 8.0mph /  12.9km/h 76% 0.00in /  0mm
10:04 57.0 °F /  13.9 °C 49.5 °F /  9.7 °C 29.74in /  1007hPa SW 4.0mph /  6.4km/h 7.0mph /  11.3km/h 76% 0.00in /  0mm
10:09 57.3 °F /  14.1 °C 50.1 °F /  10.1 °C 29.74in /  1007hPa SW 4.0mph /  6.4km/h 7.0mph /  11.3km/h 77% 0.00in /  0mm
10:14 58.3 °F /  14.6 °C 49.3 °F /  9.6 °C 29.74in /  1007hPa SW 4.0mph /  6.4km/h 8.0mph /  12.9km/h 72% 0.00in /  0mm
10:19 58.8 °F /  14.9 °C 50.9 °F /  10.5 °C 29.74in /  1007hPa SSW 4.0mph /  6.4km/h 7.0mph /  11.3km/h 75% 0.00in /  0mm
10:24 59.4 °F /  15.2 °C 50.4 °F /  10.2 °C 29.74in /  1007hPa WSW 5.0mph /  8km/h 7.0mph /  11.3km/h 72% 0.00in /  0mm
10:29 59.5 °F /  15.3 °C 49.7 °F /  9.8 °C 29.74in /  1007hPa WSW 4.0mph /  6.4km/h 8.0mph /  12.9km/h 70% 0.00in /  0mm
10:34 60.2 °F /  15.7 °C 49.2 °F /  9.6 °C 29.74in /  1007hPa West 4.0mph /  6.4km/h 8.0mph /  12.9km/h 67% 0.00in /  0mm
10:39 60.6 °F /  15.9 °C 49.6 °F /  9.8 °C 29.74in /  1007hPa West 4.0mph /  6.4km/h 8.0mph /  12.9km/h 67% 0.00in /  0mm
10:44 60.1 °F /  15.6 °C 49.1 °F /  9.5 °C 29.74in /  1007hPa WSW 4.0mph /  6.4km/h 6.0mph /  9.7km/h 67% 0.00in /  0mm
10:49 59.9 °F /  15.5 °C 48.9 °F /  9.4 °C 29.74in /  1007hPa SW 5.0mph /  8km/h 7.0mph /  11.3km/h 67% 0.00in /  0mm
10:54 60.3 °F /  15.7 °C 50.1 °F /  10.1 °C 29.74in /  1007hPa WSW 6.0mph /  9.7km/h 9.0mph /  14.5km/h 69% 0.00in /  0mm
10:59 60.4 °F /  15.8 °C 49.8 °F /  9.9 °C 29.73in /  1006.7hPa WSW 2.0mph /  3.2km/h 9.0mph /  14.5km/h 68% 0.00in /  0mm
11:04 60.9 °F /  16.1 °C 50.7 °F /  10.4 °C 29.74in /  1007hPa SW 5.0mph /  8km/h 9.0mph /  14.5km/h 69% 0.00in /  0mm
11:09 61.6 °F /  16.4 °C 50.5 °F /  10.3 °C 29.74in /  1007hPa WSW 4.0mph /  6.4km/h 9.0mph /  14.5km/h 67% 0.00in /  0mm
11:14 60.8 °F /  16 °C 48.1 °F /  8.9 °C 29.74in /  1007hPa SW 5.0mph /  8km/h 10.0mph /  16.1km/h 63% 0.00in /  0mm
11:19 61.2 °F /  16.2 °C 50.6 °F /  10.3 °C 29.73in /  1006.7hPa SW 2.0mph /  3.2km/h 8.0mph /  12.9km/h 68% 0.00in /  0mm
11:24 62.0 °F /  16.7 °C 51.3 °F /  10.7 °C 29.73in /  1006.7hPa West 4.0mph /  6.4km/h 8.0mph /  12.9km/h 68% 0.00in /  0mm
11:29 62.6 °F /  17 °C 52.3 °F /  11.3 °C 29.73in /  1006.7hPa SW 5.0mph /  8km/h 8.0mph /  12.9km/h 69% 0.00in /  0mm
11:34 62.4 °F /  16.9 °C 50.5 °F /  10.3 °C 29.73in /  1006.7hPa SW 5.0mph /  8km/h 10.0mph /  16.1km/h 65% 0.00in /  0mm
11:39 62.0 °F /  16.7 °C 50.9 °F /  10.5 °C 29.73in /  1006.7hPa SSW 5.0mph /  8km/h 10.0mph /  16.1km/h 67% 0.00in /  0mm
11:44 61.9 °F /  16.6 °C 50.0 °F /  10 °C 29.73in /  1006.7hPa SW 6.0mph /  9.7km/h 12.0mph /  19.3km/h 65% 0.00in /  0mm
11:49 62.4 °F /  16.9 °C 52.1 °F /  11.2 °C 29.73in /  1006.7hPa West 11.0mph /  17.7km/h 13.0mph /  20.9km/h 69% 0.00in /  0mm
11:54 61.1 °F /  16.2 °C 49.2 °F /  9.6 °C 29.72in /  1006.3hPa SW 6.0mph /  9.7km/h 14.0mph /  22.5km/h 65% 0.00in /  0mm
11:59 59.6 °F /  15.3 °C 48.6 °F /  9.2 °C 29.72in /  1006.3hPa SW 6.0mph /  9.7km/h 14.0mph /  22.5km/h 67% 0.00in /  0mm
12:04 58.0 °F /  14.4 °C 48.6 °F /  9.2 °C 29.73in /  1006.7hPa SW 10.0mph /  16.1km/h 12.0mph /  19.3km/h 71% 0.00in /  0mm
12:09 56.8 °F /  13.8 °C 48.6 °F /  9.2 °C 29.73in /  1006.7hPa WSW 4.0mph /  6.4km/h 11.0mph /  17.7km/h 74% 0.00in /  0mm
12:14 55.7 °F /  13.2 °C 48.9 °F /  9.4 °C 29.73in /  1006.7hPa West 8.0mph /  12.9km/h 11.0mph /  17.7km/h 78% 0.01in /  0.25mm
12:19 55.3 °F /  12.9 °C 49.9 °F /  9.9 °C 29.72in /  1006.3hPa SW 7.0mph /  11.3km/h 9.0mph /  14.5km/h 82% 0.02in /  0.51mm
12:24 55.5 °F /  13.1 °C 50.1 °F /  10.1 °C 29.72in /  1006.3hPa SW 5.0mph /  8km/h 9.0mph /  14.5km/h 82% 0.02in /  0.51mm
12:29 55.0 °F /  12.8 °C 49.3 °F /  9.6 °C 29.72in /  1006.3hPa SW 4.0mph /  6.4km/h 10.0mph /  16.1km/h 81% 0.02in /  0.51mm
12:34 54.8 °F /  12.7 °C 49.1 °F /  9.5 °C 29.72in /  1006.3hPa SSW 2.0mph /  3.2km/h 8.0mph /  12.9km/h 81% 0.03in /  0.76mm
12:39 54.3 °F /  12.4 °C 48.6 °F /  9.2 °C 29.72in /  1006.3hPa SW 2.0mph /  3.2km/h 9.0mph /  14.5km/h 81% 0.04in /  1.02mm
12:44 54.2 °F /  12.3 °C 48.8 °F /  9.3 °C 29.72in /  1006.3hPa SW 5.0mph /  8km/h 11.0mph /  17.7km/h 82% 0.05in /  1.27mm
12:49 54.2 °F /  12.3 °C 48.8 °F /  9.3 °C 29.71in /  1006hPa Calm   8.0mph /  12.9km/h 82% 0.05in /  1.27mm
12:54 54.3 °F /  12.4 °C 48.6 °F /  9.2 °C 29.72in /  1006.3hPa SW 3.0mph /  4.8km/h 8.0mph /  12.9km/h 81% 0.06in /  1.52mm
12:59 54.3 °F /  12.4 °C 48.9 °F /  9.4 °C 29.72in /  1006.3hPa WSW 4.0mph /  6.4km/h 11.0mph /  17.7km/h 82% 0.08in /  2.03mm
13:04 53.7 °F /  12.1 °C 48.3 °F /  9.1 °C 29.73in /  1006.7hPa WSW 5.0mph /  8km/h 11.0mph /  17.7km/h 82% 0.13in /  3.3mm
13:09 52.9 °F /  11.6 °C 48.2 °F /  9 °C 29.71in /  1006hPa WSW 4.0mph /  6.4km/h 9.0mph /  14.5km/h 84% 0.21in /  5.33mm
13:14 52.8 °F /  11.6 °C 48.1 °F /  8.9 °C 29.71in /  1006hPa SW 5.0mph /  8km/h 10.0mph /  16.1km/h 84% 0.21in /  5.33mm
13:19 53.6 °F /  12 °C 49.2 °F /  9.6 °C 29.71in /  1006hPa WNW 3.0mph /  4.8km/h 12.0mph /  19.3km/h 85% 0.20in /  5.08mm
13:24 55.4 °F /  13 °C 50.6 °F /  10.3 °C 29.71in /  1006hPa West 4.0mph /  6.4km/h 12.0mph /  19.3km/h 84% 0.20in /  5.08mm
13:29 55.4 °F /  13 °C 51.0 °F /  10.6 °C 29.70in /  1005.6hPa West 2.0mph /  3.2km/h 10.0mph /  16.1km/h 85% 0.20in /  5.08mm
13:34 56.7 °F /  13.7 °C 52.2 °F /  11.2 °C 29.70in /  1005.6hPa West 8.0mph /  12.9km/h 13.0mph /  20.9km/h 85% 0.19in /  4.83mm
13:39 57.7 °F /  14.3 °C 51.6 °F /  10.9 °C 29.69in /  1005.3hPa WSW 6.0mph /  9.7km/h 18.0mph /  29km/h 80% 0.18in /  4.57mm
13:44 57.7 °F /  14.3 °C 50.9 °F /  10.5 °C 29.69in /  1005.3hPa SSW 5.0mph /  8km/h 15.0mph /  24.1km/h 78% 0.17in /  4.32mm
13:49 58.3 °F /  14.6 °C 51.5 °F /  10.8 °C 29.69in /  1005.3hPa SSW 5.0mph /  8km/h 12.0mph /  19.3km/h 78% 0.17in /  4.32mm
13:54 59.7 °F /  15.4 °C 52.1 °F /  11.2 °C 29.69in /  1005.3hPa WSW 7.0mph /  11.3km/h 13.0mph /  20.9km/h 76% 0.16in /  4.06mm
13:59 58.0 °F /  14.4 °C 49.4 °F /  9.7 °C 29.69in /  1005.3hPa WSW 6.0mph /  9.7km/h 16.0mph /  25.7km/h 73% 0.14in /  3.56mm
14:04 57.1 °F /  13.9 °C 48.9 °F /  9.4 °C 29.69in /  1005.3hPa WSW 6.0mph /  9.7km/h 16.0mph /  25.7km/h 74% 0.06in /  1.52mm
14:09 59.5 °F /  15.3 °C 51.6 °F /  10.9 °C 29.68in /  1005hPa WSW 6.0mph /  9.7km/h 14.0mph /  22.5km/h 75% 0.01in /  0.25mm
14:14 61.3 °F /  16.3 °C 52.2 °F /  11.2 °C 29.68in /  1005hPa WSW 6.0mph /  9.7km/h 13.0mph /  20.9km/h 72% 0.00in /  0mm
14:19 61.6 °F /  16.4 °C 50.5 °F /  10.3 °C 29.68in /  1005hPa WSW 7.0mph /  11.3km/h 14.0mph /  22.5km/h 67% 0.00in /  0mm
14:24 60.9 °F /  16.1 °C 49.5 °F /  9.7 °C 29.68in /  1005hPa West 7.0mph /  11.3km/h 14.0mph /  22.5km/h 66% 0.00in /  0mm
14:29 62.6 °F /  17 °C 46.7 °F /  8.2 °C 29.68in /  1005hPa WSW 12.0mph /  19.3km/h 14.0mph /  22.5km/h 56% 0.00in /  0mm
14:34 63.9 °F /  17.7 °C 41.5 °F /  5.3 °C 29.68in /  1005hPa West 18.0mph /  29km/h 25.0mph /  40.2km/h 44% 0.00in /  0mm
14:39 63.2 °F /  17.3 °C 40.9 °F /  4.9 °C 29.68in /  1005hPa WSW 10.0mph /  16.1km/h 22.0mph /  35.4km/h 44% 0.00in /  0mm
14:44 62.9 °F /  17.2 °C 41.2 °F /  5.1 °C 29.68in /  1005hPa NW 16.0mph /  25.7km/h 21.0mph /  33.8km/h 45% 0.00in /  0mm
14:49 62.1 °F /  16.7 °C 39.9 °F /  4.4 °C 29.69in /  1005.3hPa NW 6.0mph /  9.7km/h 24.0mph /  38.6km/h 44% 0.00in /  0mm
14:54 62.0 °F /  16.7 °C 38.0 °F /  3.3 °C 29.69in /  1005.3hPa WNW 10.0mph /  16.1km/h 24.0mph /  38.6km/h 41% 0.00in /  0mm
14:59 61.5 °F /  16.4 °C 36.9 °F /  2.7 °C 29.69in /  1005.3hPa WNW 9.0mph /  14.5km/h 18.0mph /  29km/h 40% 0.00in /  0mm
15:04 61.6 °F /  16.4 °C 38.3 °F /  3.5 °C 29.68in /  1005hPa WNW 9.0mph /  14.5km/h 19.0mph /  30.6km/h 42% 0.00in /  0mm
15:09 63.8 °F /  17.7 °C 38.4 °F /  3.6 °C 29.69in /  1005.3hPa WNW 9.0mph /  14.5km/h 19.0mph /  30.6km/h 39% 0.00in /  0mm
15:14 64.3 °F /  17.9 °C 38.8 °F /  3.8 °C 29.68in /  1005hPa WNW 10.0mph /  16.1km/h 19.0mph /  30.6km/h 39% 0.00in /  0mm
15:19 64.3 °F /  17.9 °C 39.4 °F /  4.1 °C 29.68in /  1005hPa West 7.0mph /  11.3km/h 19.0mph /  30.6km/h 40% 0.00in /  0mm
15:24 64.5 °F /  18.1 °C 40.3 °F /  4.6 °C 29.69in /  1005.3hPa WNW 9.0mph /  14.5km/h 19.0mph /  30.6km/h 41% 0.00in /  0mm
15:29 64.4 °F /  18 °C 41.4 °F /  5.2 °C 29.69in /  1005.3hPa WNW 9.0mph /  14.5km/h 19.0mph /  30.6km/h 43% 0.00in /  0mm
15:34 63.2 °F /  17.3 °C 38.5 °F /  3.6 °C 29.69in /  1005.3hPa WNW 7.0mph /  11.3km/h 18.0mph /  29km/h 40% 0.00in /  0mm
15:39 61.6 °F /  16.4 °C 40.6 °F /  4.8 °C 29.70in /  1005.6hPa North 7.0mph /  11.3km/h 18.0mph /  29km/h 46% 0.00in /  0mm
15:44 60.4 °F /  15.8 °C 41.1 °F /  5.1 °C 29.70in /  1005.6hPa NNW 5.0mph /  8km/h 13.0mph /  20.9km/h 49% 0.00in /  0mm
15:49 59.8 °F /  15.4 °C 40.6 °F /  4.8 °C 29.70in /  1005.6hPa NNW 5.0mph /  8km/h 18.0mph /  29km/h 49% 0.00in /  0mm
15:54 59.7 °F /  15.4 °C 41.5 °F /  5.3 °C 29.70in /  1005.6hPa NW 8.0mph /  12.9km/h 22.0mph /  35.4km/h 51% 0.00in /  0mm
15:59 59.1 °F /  15.1 °C 42.0 °F /  5.6 °C 29.70in /  1005.6hPa NW 8.0mph /  12.9km/h 22.0mph /  35.4km/h 53% 0.00in /  0mm
16:04 58.8 °F /  14.9 °C 42.7 °F /  5.9 °C 29.72in /  1006.3hPa NNW 9.0mph /  14.5km/h 20.0mph /  32.2km/h 55% 0.00in /  0mm
16:09 58.4 °F /  14.7 °C 43.2 °F /  6.2 °C 29.72in /  1006.3hPa NNW 13.0mph /  20.9km/h 20.0mph /  32.2km/h 57% 0.00in /  0mm
16:14 57.8 °F /  14.3 °C 43.1 °F /  6.2 °C 29.72in /  1006.3hPa NW 8.0mph /  12.9km/h 21.0mph /  33.8km/h 58% 0.00in /  0mm
16:19 57.2 °F /  14 °C 41.6 °F /  5.3 °C 29.72in /  1006.3hPa NNW 5.0mph /  8km/h 19.0mph /  30.6km/h 56% 0.00in /  0mm
16:24 56.9 °F /  13.8 °C 41.8 °F /  5.4 °C 29.73in /  1006.7hPa NW 8.0mph /  12.9km/h 19.0mph /  30.6km/h 57% 0.00in /  0mm
16:29 56.6 °F /  13.7 °C 41.5 °F /  5.3 °C 29.73in /  1006.7hPa NNW 7.0mph /  11.3km/h 17.0mph /  27.4km/h 57% 0.00in /  0mm
16:34 56.2 °F /  13.4 °C 42.1 °F /  5.6 °C 29.74in /  1007hPa NNW 7.0mph /  11.3km/h 13.0mph /  20.9km/h 59% 0.00in /  0mm
16:39 55.8 °F /  13.2 °C 42.1 °F /  5.6 °C 29.74in /  1007hPa NW 9.0mph /  14.5km/h 14.0mph /  22.5km/h 60% 0.00in /  0mm
16:44 55.4 °F /  13 °C 42.6 °F /  5.9 °C 29.74in /  1007hPa West 8.0mph /  12.9km/h 14.0mph /  22.5km/h 62% 0.00in /  0mm
16:49 55.1 °F /  12.8 °C 43.1 °F /  6.2 °C 29.75in /  1007.3hPa NW 6.0mph /  9.7km/h 14.0mph /  22.5km/h 64% 0.00in /  0mm
16:54 54.7 °F /  12.6 °C 42.8 °F /  6 °C 29.75in /  1007.3hPa NW 6.0mph /  9.7km/h 13.0mph /  20.9km/h 64% 0.00in /  0mm
16:59 54.4 °F /  12.4 °C 42.9 °F /  6.1 °C 29.75in /  1007.3hPa NW 6.0mph /  9.7km/h 14.0mph /  22.5km/h 65% 0.00in /  0mm
17:04 54.3 °F /  12.4 °C 42.8 °F /  6 °C 29.76in /  1007.7hPa NW 8.0mph /  12.9km/h 15.0mph /  24.1km/h 65% 0.00in /  0mm
17:09 54.1 °F /  12.3 °C 43.4 °F /  6.3 °C 29.76in /  1007.7hPa NW 7.0mph /  11.3km/h 12.0mph /  19.3km/h 67% 0.00in /  0mm
17:14 53.9 °F /  12.2 °C 43.2 °F /  6.2 °C 29.76in /  1007.7hPa NW 14.0mph /  22.5km/h 14.0mph /  22.5km/h 67% 0.00in /  0mm
17:19 53.8 °F /  12.1 °C 43.1 °F /  6.2 °C 29.76in /  1007.7hPa NNW 5.0mph /  8km/h 15.0mph /  24.1km/h 67% 0.00in /  0mm
17:24 53.8 °F /  12.1 °C 43.1 °F /  6.2 °C 29.77in /  1008hPa NW 7.0mph /  11.3km/h 15.0mph /  24.1km/h 67% 0.00in /  0mm
17:29 53.8 °F /  12.1 °C 42.7 °F /  5.9 °C 29.77in /  1008hPa NW 6.0mph /  9.7km/h 13.0mph /  20.9km/h 66% 0.00in /  0mm
17:34 53.9 °F /  12.2 °C 43.2 °F /  6.2 °C 29.77in /  1008hPa NW 5.0mph /  8km/h 13.0mph /  20.9km/h 67% 0.00in /  0mm
17:39 54.3 °F /  12.4 °C 43.2 °F /  6.2 °C 29.77in /  1008hPa NW 7.0mph /  11.3km/h 17.0mph /  27.4km/h 66% 0.00in /  0mm
17:44 54.7 °F /  12.6 °C 43.6 °F /  6.4 °C 29.77in /  1008hPa NW 7.0mph /  11.3km/h 17.0mph /  27.4km/h 66% 0.00in /  0mm
17:49 55.1 °F /  12.8 °C 43.5 °F /  6.4 °C 29.78in /  1008.4hPa NW 4.0mph /  6.4km/h 15.0mph /  24.1km/h 65% 0.00in /  0mm
17:54 55.2 °F /  12.9 °C 43.2 °F /  6.2 °C 29.78in /  1008.4hPa WNW 10.0mph /  16.1km/h 15.0mph /  24.1km/h 64% 0.00in /  0mm
17:59 55.5 °F /  13.1 °C 43.5 °F /  6.4 °C 29.78in /  1008.4hPa North 3.0mph /  4.8km/h 11.0mph /  17.7km/h 64% 0.00in /  0mm
18:04 55.9 °F /  13.3 °C 43.1 °F /  6.2 °C 29.78in /  1008.4hPa West 6.0mph /  9.7km/h 15.0mph /  24.1km/h 62% 0.00in /  0mm
18:09 56.6 °F /  13.7 °C 43.7 °F /  6.5 °C 29.78in /  1008.4hPa NW 4.0mph /  6.4km/h 9.0mph /  14.5km/h 62% 0.00in /  0mm
18:14 56.8 °F /  13.8 °C 43.5 °F /  6.4 °C 29.78in /  1008.4hPa NW 3.0mph /  4.8km/h 13.0mph /  20.9km/h 61% 0.00in /  0mm
18:19 57.0 °F /  13.9 °C 43.7 °F /  6.5 °C 29.78in /  1008.4hPa NW 5.0mph /  8km/h 13.0mph /  20.9km/h 61% 0.00in /  0mm
18:24 57.3 °F /  14.1 °C 43.5 °F /  6.4 °C 29.78in /  1008.4hPa NW 5.0mph /  8km/h 12.0mph /  19.3km/h 60% 0.00in /  0mm
18:29 57.2 °F /  14 °C 43.0 °F /  6.1 °C 29.78in /  1008.4hPa NW 6.0mph /  9.7km/h 14.0mph /  22.5km/h 59% 0.00in /  0mm
18:34 56.8 °F /  13.8 °C 41.7 °F /  5.4 °C 29.79in /  1008.7hPa NNW 7.0mph /  11.3km/h 14.0mph /  22.5km/h 57% 0.00in /  0mm
18:39 56.5 °F /  13.6 °C 41.9 °F /  5.5 °C 29.79in /  1008.7hPa NNW 11.0mph /  17.7km/h 15.0mph /  24.1km/h 58% 0.00in /  0mm
18:44 56.2 °F /  13.4 °C 41.6 °F /  5.3 °C 29.79in /  1008.7hPa NW 12.0mph /  19.3km/h 15.0mph /  24.1km/h 58% 0.00in /  0mm
18:49 56.0 °F /  13.3 °C 41.9 °F /  5.5 °C 29.80in /  1009hPa NW 6.0mph /  9.7km/h 15.0mph /  24.1km/h 59% 0.00in /  0mm
18:54 55.8 °F /  13.2 °C 40.8 °F /  4.9 °C 29.80in /  1009hPa NNW 9.0mph /  14.5km/h 15.0mph /  24.1km/h 57% 0.00in /  0mm
18:59 55.7 °F /  13.2 °C 41.1 °F /  5.1 °C 29.80in /  1009hPa NNW 12.0mph /  19.3km/h 13.0mph /  20.9km/h 58% 0.00in /  0mm
19:04 55.7 °F /  13.2 °C 40.7 °F /  4.8 °C 29.81in /  1009.4hPa NW 7.0mph /  11.3km/h 16.0mph /  25.7km/h 57% 0.00in /  0mm
19:09 55.5 °F /  13.1 °C 40.5 °F /  4.7 °C 29.81in /  1009.4hPa NNE 12.0mph /  19.3km/h 17.0mph /  27.4km/h 57% 0.00in /  0mm
19:14 55.4 °F /  13 °C 40.9 °F /  4.9 °C 29.81in /  1009.4hPa NW 12.0mph /  19.3km/h 17.0mph /  27.4km/h 58% 0.00in /  0mm
19:19 55.3 °F /  12.9 °C 40.8 °F /  4.9 °C 29.81in /  1009.4hPa NW 7.0mph /  11.3km/h 17.0mph /  27.4km/h 58% 0.00in /  0mm
19:24 55.2 °F /  12.9 °C 41.1 °F /  5.1 °C 29.81in /  1009.4hPa NW 6.0mph /  9.7km/h 14.0mph /  22.5km/h 59% 0.00in /  0mm
19:29 54.9 °F /  12.7 °C 40.8 °F /  4.9 °C 29.81in /  1009.4hPa NW 6.0mph /  9.7km/h 16.0mph /  25.7km/h 59% 0.00in /  0mm
19:34 54.7 °F /  12.6 °C 41.1 °F /  5.1 °C 29.81in /  1009.4hPa NW 5.0mph /  8km/h 16.0mph /  25.7km/h 60% 0.00in /  0mm
19:39 54.6 °F /  12.6 °C 40.6 °F /  4.8 °C 29.82in /  1009.7hPa NW 4.0mph /  6.4km/h 13.0mph /  20.9km/h 59% 0.00in /  0mm
19:44 54.3 °F /  12.4 °C 40.7 °F /  4.8 °C 29.82in /  1009.7hPa NNW 7.0mph /  11.3km/h 14.0mph /  22.5km/h 60% 0.00in /  0mm
19:49 54.1 °F /  12.3 °C 40.5 °F /  4.7 °C 29.82in /  1009.7hPa NW 7.0mph /  11.3km/h 14.0mph /  22.5km/h 60% 0.00in /  0mm
19:54 54.0 °F /  12.2 °C 40.8 °F /  4.9 °C 29.82in /  1009.7hPa NW 5.0mph /  8km/h 14.0mph /  22.5km/h 61% 0.00in /  0mm
19:59 53.9 °F /  12.2 °C 40.8 °F /  4.9 °C 29.82in /  1009.7hPa NNW 9.0mph /  14.5km/h 15.0mph /  24.1km/h 61% 0.00in /  0mm
20:04 53.8 °F /  12.1 °C 40.7 °F /  4.8 °C 29.83in /  1010hPa WNW 4.0mph /  6.4km/h 18.0mph /  29km/h 61% 0.00in /  0mm
20:09 53.6 °F /  12 °C 40.5 °F /  4.7 °C 29.83in /  1010hPa NW 2.0mph /  3.2km/h 17.0mph /  27.4km/h 61% 0.00in /  0mm
20:14 53.4 °F /  11.9 °C 40.7 °F /  4.8 °C 29.83in /  1010hPa NNE 8.0mph /  12.9km/h 15.0mph /  24.1km/h 62% 0.00in /  0mm
20:19 53.2 °F /  11.8 °C 40.5 °F /  4.7 °C 29.83in /  1010hPa NW 6.0mph /  9.7km/h 15.0mph /  24.1km/h 62% 0.00in /  0mm
20:24 53.0 °F /  11.7 °C 40.7 °F /  4.8 °C 29.83in /  1010hPa NW 6.0mph /  9.7km/h 15.0mph /  24.1km/h 63% 0.00in /  0mm
20:29 52.7 °F /  11.5 °C 40.5 °F /  4.7 °C 29.84in /  1010.4hPa WNW 5.0mph /  8km/h 15.0mph /  24.1km/h 63% 0.00in /  0mm
20:34 52.4 °F /  11.3 °C 40.6 °F /  4.8 °C 29.83in /  1010hPa WNW 8.0mph /  12.9km/h 15.0mph /  24.1km/h 64% 0.00in /  0mm
20:39 52.2 °F /  11.2 °C 40.8 °F /  4.9 °C 29.84in /  1010.4hPa WNW 3.0mph /  4.8km/h 13.0mph /  20.9km/h 65% 0.00in /  0mm
20:44 51.9 °F /  11.1 °C 40.9 °F /  4.9 °C 29.84in /  1010.4hPa NNW 9.0mph /  14.5km/h 13.0mph /  20.9km/h 66% 0.00in /  0mm
20:49 51.6 °F /  10.9 °C 40.6 °F /  4.8 °C 29.84in /  1010.4hPa NW 5.0mph /  8km/h 13.0mph /  20.9km/h 66% 0.00in /  0mm
20:54 51.4 °F /  10.8 °C 40.8 °F /  4.9 °C 29.85in /  1010.7hPa NW 5.0mph /  8km/h 12.0mph /  19.3km/h 67% 0.00in /  0mm
20:59 51.4 °F /  10.8 °C 40.8 °F /  4.9 °C 29.84in /  1010.4hPa West 2.0mph /  3.2km/h 11.0mph /  17.7km/h 67% 0.00in /  0mm
21:04 51.2 °F /  10.7 °C 41.0 °F /  5 °C 29.85in /  1010.7hPa NW 4.0mph /  6.4km/h 8.0mph /  12.9km/h 68% 0.00in /  0mm
21:09 50.9 °F /  10.5 °C 40.7 °F /  4.8 °C 29.85in /  1010.7hPa North 4.0mph /  6.4km/h 8.0mph /  12.9km/h 68% 0.00in /  0mm
21:14 50.9 °F /  10.5 °C 41.1 °F /  5.1 °C 29.85in /  1010.7hPa NW 4.0mph /  6.4km/h 12.0mph /  19.3km/h 69% 0.00in /  0mm
21:19 50.8 °F /  10.4 °C 41.0 °F /  5 °C 29.85in /  1010.7hPa NW 4.0mph /  6.4km/h 12.0mph /  19.3km/h 69% 0.00in /  0mm
21:24 50.7 °F /  10.4 °C 41.3 °F /  5.2 °C 29.86in /  1011.1hPa NW 4.0mph /  6.4km/h 14.0mph /  22.5km/h 70% 0.00in /  0mm
21:29 50.7 °F /  10.4 °C 41.3 °F /  5.2 °C 29.86in /  1011.1hPa NNW 7.0mph /  11.3km/h 13.0mph /  20.9km/h 70% 0.00in /  0mm
21:34 50.6 °F /  10.3 °C 41.2 °F /  5.1 °C 29.86in /  1011.1hPa NNW 3.0mph /  4.8km/h 9.0mph /  14.5km/h 70% 0.00in /  0mm
21:39 50.6 °F /  10.3 °C 41.2 °F /  5.1 °C 29.86in /  1011.1hPa WNW 4.0mph /  6.4km/h 12.0mph /  19.3km/h 70% 0.00in /  0mm
21:44 50.4 °F /  10.2 °C 41.3 °F /  5.2 °C 29.87in /  1011.4hPa NW 5.0mph /  8km/h 12.0mph /  19.3km/h 71% 0.00in /  0mm
21:49 50.4 °F /  10.2 °C 41.3 °F /  5.2 °C 29.87in /  1011.4hPa NW 4.0mph /  6.4km/h 8.0mph /  12.9km/h 71% 0.00in /  0mm
21:54 50.2 °F /  10.1 °C 41.5 °F /  5.3 °C 29.87in /  1011.4hPa NNW 2.0mph /  3.2km/h 9.0mph /  14.5km/h 72% 0.00in /  0mm
21:59 50.1 °F /  10.1 °C 41.4 °F /  5.2 °C 29.87in /  1011.4hPa NW 4.0mph /  6.4km/h 9.0mph /  14.5km/h 72% 0.00in /  0mm
22:04 50.0 °F /  10 °C 41.7 °F /  5.4 °C 29.88in /  1011.7hPa NW 4.0mph /  6.4km/h 9.0mph /  14.5km/h 73% 0.00in /  0mm
22:09 50.0 °F /  10 °C 41.7 °F /  5.4 °C 29.88in /  1011.7hPa NW 4.0mph /  6.4km/h 8.0mph /  12.9km/h 73% 0.00in /  0mm
22:14 50.0 °F /  10 °C 41.7 °F /  5.4 °C 29.88in /  1011.7hPa NW 4.0mph /  6.4km/h 10.0mph /  16.1km/h 73% 0.00in /  0mm
22:19 49.8 °F /  9.9 °C 41.5 °F /  5.3 °C 29.88in /  1011.7hPa NNW 3.0mph /  4.8km/h 10.0mph /  16.1km/h 73% 0.00in /  0mm
22:24 49.9 °F /  9.9 °C 41.6 °F /  5.3 °C 29.88in /  1011.7hPa NW 6.0mph /  9.7km/h 12.0mph /  19.3km/h 73% 0.00in /  0mm
22:29 49.8 °F /  9.9 °C 41.8 °F /  5.4 °C 29.88in /  1011.7hPa WNW 5.0mph /  8km/h 9.0mph /  14.5km/h 74% 0.00in /  0mm
22:34 49.9 °F /  9.9 °C 41.9 °F /  5.5 °C 29.88in /  1011.7hPa WNW 3.0mph /  4.8km/h 11.0mph /  17.7km/h 74% 0.00in /  0mm
22:39 50.0 °F /  10 °C 42.0 °F /  5.6 °C 29.88in /  1011.7hPa West 5.0mph /  8km/h 8.0mph /  12.9km/h 74% 0.00in /  0mm
22:44 50.1 °F /  10.1 °C 42.1 °F /  5.6 °C 29.88in /  1011.7hPa NW 4.0mph /  6.4km/h 9.0mph /  14.5km/h 74% 0.00in /  0mm
22:49 50.2 °F /  10.1 °C 42.2 °F /  5.7 °C 29.89in /  1012.1hPa NW 3.0mph /  4.8km/h 9.0mph /  14.5km/h 74% 0.00in /  0mm
22:54 50.2 °F /  10.1 °C 42.2 °F /  5.7 °C 29.89in /  1012.1hPa WNW 3.0mph /  4.8km/h 7.0mph /  11.3km/h 74% 0.00in /  0mm
22:59 50.3 °F /  10.2 °C 42.3 °F /  5.7 °C 29.89in /  1012.1hPa WNW 3.0mph /  4.8km/h 9.0mph /  14.5km/h 74% 0.00in /  0mm
23:04 50.2 °F /  10.1 °C 42.2 °F /  5.7 °C 29.89in /  1012.1hPa WNW 3.0mph /  4.8km/h 9.0mph /  14.5km/h 74% 0.00in /  0mm
23:09 50.3 °F /  10.2 °C 42.3 °F /  5.7 °C 29.90in /  1012.4hPa NNW 1.0mph /  1.6km/h 7.0mph /  11.3km/h 74% 0.00in /  0mm
23:14 50.3 °F /  10.2 °C 42.3 °F /  5.7 °C 29.90in /  1012.4hPa NW 4.0mph /  6.4km/h 9.0mph /  14.5km/h 74% 0.00in /  0mm
23:19 50.3 °F /  10.2 °C 42.3 °F /  5.7 °C 29.90in /  1012.4hPa WNW 4.0mph /  6.4km/h 9.0mph /  14.5km/h 74% 0.00in /  0mm
23:24 50.4 °F /  10.2 °C 42.4 °F /  5.8 °C 29.90in /  1012.4hPa NW 3.0mph /  4.8km/h 6.0mph /  9.7km/h 74% 0.00in /  0mm
23:29 50.3 °F /  10.2 °C 42.3 °F /  5.7 °C 29.90in /  1012.4hPa WNW 5.0mph /  8km/h 9.0mph /  14.5km/h 74% 0.00in /  0mm
23:34 50.3 °F /  10.2 °C 42.3 °F /  5.7 °C 29.90in /  1012.4hPa North 6.0mph /  9.7km/h 10.0mph /  16.1km/h 74% 0.00in /  0mm
23:39 50.4 °F /  10.2 °C 42.4 °F /  5.8 °C 29.90in /  1012.4hPa NW 4.0mph /  6.4km/h 10.0mph /  16.1km/h 74% 0.00in /  0mm
23:44 50.3 °F /  10.2 °C 42.3 °F /  5.7 °C 29.90in /  1012.4hPa NW 3.0mph /  4.8km/h 9.0mph /  14.5km/h 74% 0.00in /  0mm
23:49 50.1 °F /  10.1 °C 42.1 °F /  5.6 °C 29.90in /  1012.4hPa NNW 4.0mph /  6.4km/h 7.0mph /  11.3km/h 74% 0.00in /  0mm
23:54 49.9 °F /  9.9 °C 41.9 °F /  5.5 °C 29.90in /  1012.4hPa NW 3.0mph /  4.8km/h 9.0mph /  14.5km/h 74% 0.00in /  0mm
23:59 49.8 °F /  9.9 °C 42.2 °F /  5.7 °C 29.90in /  1012.4hPa NW 3.0mph /  4.8km/h 7.0mph /  11.3km/h 75% 0.00in /  0mm
Buffalo, New York, USA
Compliments of Weather Underground - 2.5 mb